createdAt,value
2022-11-09T00:01:30.434Z,0.93
2022-11-09T00:04:01.023Z,1.20
2022-11-09T00:06:31.961Z,0.80
2022-11-09T00:09:07.133Z,1.10
2022-11-09T00:11:37.144Z,0.90
2022-11-09T00:14:05.924Z,1.00
2022-11-09T00:16:34.349Z,1.30
2022-11-09T00:19:02.722Z,1.00
2022-11-09T00:21:32.482Z,1.20
2022-11-09T00:24:00.957Z,1.10
2022-11-09T00:26:29.443Z,1.10
2022-11-09T00:28:57.885Z,1.20
2022-11-09T00:31:28.117Z,1.10
2022-11-09T00:33:58.565Z,1.00
2022-11-09T00:36:29.651Z,1.10
2022-11-09T00:39:01.426Z,1.30
2022-11-09T00:41:30.037Z,1.10
2022-11-09T00:43:58.457Z,1.30
2022-11-09T00:46:27.189Z,1.50
2022-11-09T00:48:56.935Z,1.10
2022-11-09T00:51:25.342Z,1.30
2022-11-09T00:53:54.774Z,1.03
2022-11-09T00:56:25.704Z,1.30
2022-11-09T00:58:55.936Z,1.27
2022-11-09T01:01:25.032Z,1.13
2022-11-09T01:03:53.475Z,1.30
2022-11-09T01:06:24.526Z,1.20
2022-11-09T01:08:53.950Z,1.17
2022-11-09T01:11:24.914Z,1.13
2022-11-09T01:13:55.721Z,1.13
2022-11-09T01:16:25.551Z,1.13
2022-11-09T01:18:55.987Z,1.20
2022-11-09T01:21:26.972Z,1.10
2022-11-09T01:23:56.185Z,1.20
2022-11-09T01:26:26.257Z,1.37
2022-11-09T01:29:39.103Z,1.20
2022-11-09T01:32:07.523Z,1.27
2022-11-09T01:34:35.953Z,1.40
2022-11-09T01:37:04.364Z,1.30
2022-11-09T01:39:32.805Z,1.23
2022-11-09T01:42:05.105Z,1.37
2022-11-09T01:44:34.925Z,1.20
2022-11-09T01:47:09.091Z,1.37
2022-11-09T01:49:45.478Z,1.10
2022-11-09T01:52:19.136Z,1.30
2022-11-09T01:54:51.796Z,1.40
2022-11-09T01:57:26.566Z,1.27
2022-11-09T02:00:00.791Z,1.10
2022-11-09T02:02:29.598Z,1.03
2022-11-09T02:05:04.777Z,1.10
2022-11-09T02:07:33.891Z,1.03
2022-11-09T02:10:07.176Z,1.23
2022-11-09T02:12:37.316Z,0.70
2022-11-09T02:15:10.270Z,1.00
2022-11-09T02:17:41.053Z,0.77
2022-11-09T02:20:13.569Z,0.83
2022-11-09T02:22:43.014Z,0.90
2022-11-09T02:25:12.755Z,0.80
2022-11-09T02:27:41.847Z,0.97
2022-11-09T02:30:12.465Z,0.93
2022-11-09T02:32:41.327Z,1.00
2022-11-09T02:35:11.621Z,1.03
2022-11-09T02:37:45.962Z,0.80
2022-11-09T02:40:24.203Z,0.97
2022-11-09T02:42:52.573Z,0.90
2022-11-09T02:45:21.004Z,1.13
2022-11-09T02:47:49.480Z,1.10
2022-11-09T02:50:19.509Z,1.30
2022-11-09T02:52:48.003Z,1.10
2022-11-09T02:55:16.897Z,1.17
2022-11-09T02:57:45.314Z,1.13
2022-11-09T03:00:16.943Z,0.93
2022-11-09T03:02:46.119Z,1.07
2022-11-09T03:05:18.458Z,1.10
2022-11-09T03:07:47.594Z,1.13
2022-11-09T03:10:16.492Z,1.27
2022-11-09T03:12:44.914Z,1.20
2022-11-09T03:15:16.247Z,1.10
2022-11-09T03:17:47.329Z,1.00
2022-11-09T03:20:16.409Z,1.17
2022-11-09T03:22:46.196Z,1.07
2022-11-09T03:25:14.897Z,1.40
2022-11-09T03:27:43.668Z,1.30
2022-11-09T03:30:13.863Z,1.07
2022-11-09T03:32:46.739Z,1.50
2022-11-09T03:35:18.204Z,1.07
2022-11-09T03:37:48.075Z,1.20
2022-11-09T03:40:16.572Z,1.20
2022-11-09T03:42:47.099Z,1.03
2022-11-09T03:45:17.415Z,0.83
2022-11-09T03:47:47.657Z,0.80
2022-11-09T03:50:18.102Z,0.90
2022-11-09T03:52:48.961Z,0.87
2022-11-09T03:55:17.399Z,1.30
2022-11-09T03:57:47.104Z,0.93
2022-11-09T04:00:19.013Z,1.00
2022-11-09T04:02:48.775Z,0.87
2022-11-09T04:05:17.505Z,1.00
2022-11-09T04:07:51.476Z,0.80
2022-11-09T04:10:21.141Z,0.90
2022-11-09T04:12:50.101Z,1.00
2022-11-09T04:15:19.251Z,0.90
2022-11-09T04:17:56.825Z,0.60
2022-11-09T04:20:26.236Z,0.90
2022-11-09T04:23:01.232Z,0.70
2022-11-09T04:25:33.688Z,0.97
2022-11-09T04:28:03.455Z,0.87
2022-11-09T04:30:35.288Z,0.73
2022-11-09T04:33:05.340Z,0.60
2022-11-09T04:35:36.292Z,0.60
2022-11-09T04:38:08.625Z,0.73
2022-11-09T04:40:37.749Z,0.53
2022-11-09T04:43:08.693Z,0.70
2022-11-09T04:45:37.536Z,0.50
2022-11-09T04:48:30.666Z,0.60
2022-11-09T04:51:03.035Z,0.70
2022-11-09T04:53:33.557Z,0.50
2022-11-09T04:56:02.283Z,0.60
2022-11-09T04:58:30.897Z,0.70
2022-11-09T05:01:05.262Z,0.67
2022-11-09T05:03:33.957Z,0.87
2022-11-09T05:06:22.431Z,0.67
2022-11-09T05:08:52.280Z,0.70
2022-11-09T05:11:59.227Z,0.87
2022-11-09T05:14:38.443Z,0.90
2022-11-09T05:17:09.525Z,0.97
2022-11-09T05:19:55.843Z,0.90
2022-11-09T05:22:43.212Z,0.70
2022-11-09T05:25:14.954Z,0.90
2022-11-09T05:27:56.133Z,0.80
2022-11-09T05:30:31.655Z,0.70
2022-11-09T05:33:04.102Z,0.80
2022-11-09T05:35:38.283Z,1.03
2022-11-09T05:38:11.104Z,0.93
2022-11-09T05:40:45.999Z,0.97
2022-11-09T05:43:28.712Z,1.03
2022-11-09T05:46:06.564Z,0.90
2022-11-09T05:48:46.930Z,0.80
2022-11-09T05:51:23.282Z,1.10
2022-11-09T05:54:16.240Z,1.03
2022-11-09T05:56:57.588Z,1.13
2022-11-09T06:02:18.761Z,1.17
2022-11-09T06:05:10.127Z,0.70
2022-11-09T06:08:07.827Z,0.93
2022-11-09T06:10:38.355Z,1.03
2022-11-09T06:13:10.517Z,1.20
2022-11-09T06:15:39.287Z,0.67
2022-11-09T06:18:07.782Z,0.90
2022-11-09T06:20:36.424Z,0.83
2022-11-09T06:23:04.911Z,0.97
2022-11-09T06:25:34.337Z,1.03
2022-11-09T06:28:03.138Z,1.27
2022-11-09T06:30:32.987Z,1.07
2022-11-09T06:33:01.762Z,0.80
2022-11-09T06:35:31.214Z,0.77
2022-11-09T06:38:01.617Z,0.60
2022-11-09T06:40:31.590Z,0.80
2022-11-09T06:43:01.314Z,0.50
2022-11-09T06:45:32.527Z,0.70
2022-11-09T06:48:03.245Z,0.73
2022-11-09T06:50:34.836Z,0.70
2022-11-09T06:53:06.358Z,0.70
2022-11-09T06:55:36.947Z,0.80
2022-11-09T06:58:08.758Z,0.70
2022-11-09T07:00:39.091Z,0.87
2022-11-09T07:03:07.951Z,0.80
2022-11-09T07:05:39.925Z,0.60
2022-11-09T07:08:08.603Z,0.70
2022-11-09T07:10:37.133Z,0.80
2022-11-09T07:13:06.181Z,0.40
2022-11-09T07:15:35.323Z,0.53
2022-11-09T07:18:08.658Z,0.70
2022-11-09T07:20:37.119Z,0.30
2022-11-09T07:23:05.636Z,0.40
2022-11-09T07:25:34.585Z,0.50
2022-11-09T07:28:07.678Z,0.30
2022-11-09T07:30:37.727Z,0.30
2022-11-09T07:33:15.829Z,0.40
2022-11-09T07:35:44.320Z,0.40
2022-11-09T07:38:13.004Z,0.50
2022-11-09T07:40:41.999Z,0.43
2022-11-09T07:43:12.873Z,0.33
2022-11-09T07:45:42.593Z,0.37
2022-11-09T07:48:13.544Z,0.33
2022-11-09T07:50:42.445Z,2.10
2022-11-09T07:53:14.074Z,3.73
2022-11-09T07:55:44.405Z,5.23
2022-11-09T07:58:15.785Z,3.23
2022-11-09T08:00:45.048Z,1.43
2022-11-09T08:03:14.853Z,1.50
2022-11-09T08:05:43.250Z,1.17
2022-11-09T08:08:15.575Z,1.90
2022-11-09T08:10:50.477Z,1.43
2022-11-09T08:13:20.201Z,1.07
2022-11-09T08:15:49.478Z,0.80
2022-11-09T08:18:21.810Z,0.80
2022-11-09T08:20:51.058Z,0.60
2022-11-09T08:23:21.826Z,0.60
2022-11-09T08:25:51.112Z,0.60
2022-11-09T08:28:20.024Z,0.43
2022-11-09T08:30:57.230Z,0.50
2022-11-09T08:33:28.396Z,0.40
2022-11-09T08:35:56.946Z,0.40
2022-11-09T08:38:35.693Z,0.43
2022-11-09T08:41:12.025Z,0.30
2022-11-09T08:43:44.628Z,0.20
2022-11-09T08:46:13.981Z,0.40
2022-11-09T08:48:47.203Z,0.40
2022-11-09T08:51:18.581Z,0.30
2022-11-09T08:53:47.907Z,0.30
2022-11-09T08:56:28.622Z,0.30
2022-11-09T08:59:01.411Z,0.20
2022-11-09T09:01:30.179Z,0.30
2022-11-09T09:04:07.569Z,0.30
2022-11-09T09:06:40.187Z,0.40
2022-11-09T09:09:12.670Z,3.53
2022-11-09T09:11:45.957Z,2.90
2022-11-09T09:14:16.173Z,2.87
2022-11-09T09:16:45.658Z,2.60
2022-11-09T09:19:17.309Z,4.33
2022-11-09T09:21:47.116Z,2.30
2022-11-09T09:24:16.700Z,2.20
2022-11-09T09:26:48.539Z,1.77
2022-11-09T09:29:17.576Z,3.07
2022-11-09T09:31:46.606Z,1.93
2022-11-09T09:34:17.474Z,1.40
2022-11-09T09:36:56.807Z,1.10
2022-11-09T09:44:15.057Z,1.53
